createdAt,value
2018-12-27T00:00:22.461Z,0.40
2018-12-27T00:02:54.877Z,0.30
2018-12-27T00:05:18.751Z,0.40
2018-12-27T00:07:46.107Z,0.30
2018-12-27T00:10:13.358Z,0.30
2018-12-27T00:12:40.718Z,0.30
2018-12-27T00:15:07.974Z,0.30
2018-12-27T00:17:35.024Z,0.20
2018-12-27T00:20:02.168Z,0.20
2018-12-27T00:22:29.223Z,0.30
2018-12-27T00:24:56.186Z,0.30
2018-12-27T00:27:23.287Z,0.30
2018-12-27T00:29:50.583Z,0.50
2018-12-27T00:32:18.019Z,0.40
2018-12-27T00:34:45.270Z,0.40
2018-12-27T00:37:12.022Z,0.30
2018-12-27T00:39:39.043Z,0.20
2018-12-27T00:42:06.105Z,0.20
2018-12-27T00:44:33.259Z,0.30
2018-12-27T00:47:00.715Z,0.20
2018-12-27T00:49:27.861Z,0.20
2018-12-27T00:51:55.439Z,0.20
2018-12-27T00:54:22.608Z,0.20
2018-12-27T00:56:49.811Z,0.20
2018-12-27T00:59:16.962Z,0.20
2018-12-27T01:01:44.316Z,0.20
2018-12-27T01:04:11.314Z,0.30
2018-12-27T01:06:38.457Z,0.30
2018-12-27T01:09:05.231Z,0.30
2018-12-27T01:11:32.255Z,0.20
2018-12-27T01:14:00.083Z,0.20
2018-12-27T01:16:27.239Z,0.10
2018-12-27T01:18:54.586Z,0.10
2018-12-27T01:21:21.970Z,0.20
2018-12-27T01:23:49.474Z,0.20
2018-12-27T01:26:16.652Z,0.20
2018-12-27T01:28:43.666Z,0.30
2018-12-27T01:31:10.670Z,0.30
2018-12-27T01:33:37.721Z,0.20
2018-12-27T01:36:04.865Z,0.20
2018-12-27T01:38:32.611Z,0.30
2018-12-27T01:41:00.275Z,0.30
2018-12-27T01:43:27.399Z,0.40
2018-12-27T01:45:54.852Z,0.60
2018-12-27T01:48:21.628Z,0.50
2018-12-27T01:50:48.908Z,0.50
2018-12-27T01:53:15.881Z,0.50
2018-12-27T01:55:43.254Z,0.40
2018-12-27T01:58:10.839Z,0.50
2018-12-27T02:00:38.199Z,0.50
2018-12-27T02:03:05.231Z,0.40
2018-12-27T02:05:32.086Z,0.40
2018-12-27T02:07:59.114Z,0.40
2018-12-27T02:10:26.161Z,0.30
2018-12-27T02:12:53.226Z,0.40
2018-12-27T02:15:20.371Z,0.50
2018-12-27T02:17:48.004Z,0.50
2018-12-27T02:20:15.498Z,0.50
2018-12-27T02:22:43.471Z,0.50
2018-12-27T02:25:11.095Z,0.50
2018-12-27T02:27:38.399Z,0.40
2018-12-27T02:30:05.425Z,0.40
2018-12-27T02:32:32.989Z,0.50
2018-12-27T02:35:00.243Z,0.40
2018-12-27T02:37:27.523Z,0.40
2018-12-27T02:39:54.665Z,0.40
2018-12-27T02:42:22.004Z,0.30
2018-12-27T02:44:49.634Z,0.30
2018-12-27T02:47:16.743Z,0.20
2018-12-27T02:49:43.755Z,0.20
2018-12-27T02:52:10.545Z,0.20
2018-12-27T02:54:38.062Z,0.20
2018-12-27T02:57:05.118Z,0.30
2018-12-27T02:59:32.455Z,0.40
2018-12-27T03:01:59.840Z,0.40
2018-12-27T03:04:26.844Z,0.40
2018-12-27T03:06:54.811Z,0.60
2018-12-27T03:09:22.398Z,0.50
2018-12-27T03:11:49.785Z,0.50
2018-12-27T03:14:17.482Z,0.40
2018-12-27T03:16:44.239Z,0.40
2018-12-27T03:19:11.819Z,0.40
2018-12-27T03:21:38.904Z,0.40
2018-12-27T03:24:06.001Z,0.40
2018-12-27T03:26:33.075Z,0.40
2018-12-27T03:29:00.548Z,0.40
2018-12-27T03:31:27.886Z,0.50
2018-12-27T03:33:54.792Z,0.50
2018-12-27T03:36:21.810Z,0.60
2018-12-27T03:38:48.844Z,0.50
2018-12-27T03:41:15.758Z,0.60
2018-12-27T03:43:42.766Z,0.60
2018-12-27T03:46:09.527Z,0.50
2018-12-27T03:48:36.614Z,0.50
2018-12-27T03:51:04.153Z,0.60
2018-12-27T03:53:31.188Z,0.70
2018-12-27T03:55:58.554Z,0.60
2018-12-27T03:58:25.970Z,0.50
2018-12-27T04:00:52.735Z,0.50
2018-12-27T04:03:20.126Z,0.60
2018-12-27T04:05:47.769Z,0.60
2018-12-27T04:08:14.787Z,0.60
2018-12-27T04:10:41.816Z,0.70
2018-12-27T04:13:09.238Z,0.60
2018-12-27T04:15:37.093Z,0.60
2018-12-27T04:18:04.346Z,0.70
2018-12-27T04:20:32.418Z,0.70
2018-12-27T04:22:59.874Z,0.80
2018-12-27T04:25:27.663Z,0.70
2018-12-27T04:27:54.687Z,0.60
2018-12-27T04:30:22.267Z,0.50
2018-12-27T04:32:49.866Z,0.60
2018-12-27T04:35:17.674Z,0.60
2018-12-27T04:37:45.028Z,0.50
2018-12-27T04:40:12.060Z,0.60
2018-12-27T04:42:40.503Z,0.50
2018-12-27T04:45:07.611Z,0.50
2018-12-27T04:47:34.377Z,0.50
2018-12-27T04:50:01.748Z,0.70
2018-12-27T04:52:28.618Z,0.80
2018-12-27T04:54:55.633Z,0.70
2018-12-27T04:57:23.308Z,0.60
2018-12-27T04:59:50.730Z,0.60
2018-12-27T05:02:17.823Z,0.60
2018-12-27T05:04:44.843Z,0.70
2018-12-27T05:07:11.927Z,0.70
2018-12-27T05:09:39.044Z,0.60
2018-12-27T05:12:06.431Z,0.60
2018-12-27T05:14:33.183Z,0.60
2018-12-27T05:17:00.190Z,0.60
2018-12-27T05:19:28.119Z,0.70
2018-12-27T05:21:55.882Z,0.60
2018-12-27T05:24:23.007Z,0.80
2018-12-27T05:26:50.301Z,0.80
2018-12-27T05:29:17.678Z,0.80
2018-12-27T05:31:44.495Z,0.70
2018-12-27T05:34:11.974Z,0.80
2018-12-27T05:36:38.740Z,0.70
2018-12-27T05:39:05.821Z,0.70
2018-12-27T05:41:32.883Z,0.60
2018-12-27T05:43:59.954Z,0.70
2018-12-27T05:46:26.943Z,0.80
2018-12-27T05:48:54.037Z,0.70
2018-12-27T05:51:21.594Z,0.60
2018-12-27T05:53:49.511Z,0.60
2018-12-27T05:56:16.443Z,0.70
2018-12-27T05:58:43.198Z,0.70
2018-12-27T06:01:10.600Z,0.70
2018-12-27T06:03:37.993Z,0.70
2018-12-27T06:06:05.241Z,0.70
2018-12-27T06:08:32.766Z,0.70
2018-12-27T06:11:00.047Z,0.60
2018-12-27T06:13:27.476Z,0.60
2018-12-27T06:15:55.135Z,0.70
2018-12-27T06:18:22.547Z,0.60
2018-12-27T06:20:49.643Z,0.70
2018-12-27T06:23:16.531Z,0.70
2018-12-27T06:25:43.943Z,0.70
2018-12-27T06:28:11.022Z,0.80
2018-12-27T06:30:38.458Z,0.70
2018-12-27T06:33:05.826Z,0.90
2018-12-27T06:35:32.664Z,0.80
2018-12-27T06:37:59.714Z,0.70
2018-12-27T06:40:26.731Z,0.70
2018-12-27T06:42:53.581Z,0.70
2018-12-27T06:45:20.892Z,0.70
2018-12-27T06:47:48.494Z,0.80
2018-12-27T06:50:15.570Z,0.70
2018-12-27T06:52:42.716Z,0.70
2018-12-27T06:55:10.710Z,0.70
2018-12-27T06:57:38.449Z,0.70
2018-12-27T07:00:05.770Z,0.60
2018-12-27T07:02:32.959Z,0.70
2018-12-27T07:04:59.899Z,0.80
2018-12-27T07:07:27.379Z,0.80
2018-12-27T07:09:54.631Z,0.80
2018-12-27T07:12:21.846Z,0.70
2018-12-27T07:14:49.342Z,0.80
2018-12-27T07:17:16.343Z,0.80
2018-12-27T07:19:43.956Z,0.80
2018-12-27T07:22:10.763Z,0.70
2018-12-27T07:24:37.965Z,0.70
2018-12-27T07:27:05.054Z,0.80
2018-12-27T07:29:32.438Z,0.70
2018-12-27T07:31:59.990Z,0.80
2018-12-27T07:34:26.860Z,0.70
2018-12-27T07:36:54.590Z,0.80
2018-12-27T07:39:21.880Z,0.90
2018-12-27T07:41:49.046Z,0.80
2018-12-27T07:44:16.798Z,0.80
2018-12-27T07:46:43.570Z,0.80
2018-12-27T07:49:10.582Z,0.70
2018-12-27T07:51:37.350Z,0.70
2018-12-27T07:54:05.051Z,0.60
2018-12-27T07:56:32.249Z,0.50
2018-12-27T07:58:59.678Z,0.50
2018-12-27T08:01:26.905Z,0.60
2018-12-27T08:03:54.186Z,0.60
2018-12-27T08:06:22.443Z,0.60
2018-12-27T08:08:49.476Z,0.70
2018-12-27T08:11:16.855Z,0.60
2018-12-27T08:13:44.027Z,0.60
2018-12-27T08:16:11.844Z,0.60
2018-12-27T08:18:39.179Z,0.60
2018-12-27T08:21:07.070Z,0.60
2018-12-27T08:23:34.805Z,0.70
2018-12-27T08:26:01.954Z,0.70
2018-12-27T08:28:28.971Z,0.80
2018-12-27T08:30:56.753Z,0.80
2018-12-27T08:33:23.502Z,0.80
2018-12-27T08:35:50.530Z,0.70
2018-12-27T08:38:17.278Z,0.70
2018-12-27T08:40:44.030Z,0.70
2018-12-27T08:43:11.908Z,0.70
2018-12-27T08:45:38.986Z,0.70
2018-12-27T08:48:06.090Z,0.80
2018-12-27T08:50:33.512Z,0.90
2018-12-27T08:53:00.862Z,0.90
2018-12-27T08:55:28.342Z,0.90
2018-12-27T08:57:55.349Z,0.90
2018-12-27T09:00:23.214Z,0.90
2018-12-27T09:02:49.977Z,0.90
2018-12-27T09:05:19.047Z,1.00
2018-12-27T09:07:46.613Z,1.00
2018-12-27T09:10:13.984Z,1.00
2018-12-27T09:12:41.399Z,1.00
2018-12-27T09:15:08.384Z,1.00
2018-12-27T09:17:35.152Z,1.10
2018-12-27T09:20:02.002Z,1.20
2018-12-27T09:22:29.102Z,1.30
2018-12-27T09:24:56.665Z,1.20
2018-12-27T09:27:23.954Z,1.10
2018-12-27T09:29:51.312Z,1.20
2018-12-27T09:32:18.322Z,1.10
2018-12-27T09:34:45.473Z,1.10
2018-12-27T09:37:12.658Z,1.20
2018-12-27T09:39:39.409Z,1.20
2018-12-27T09:42:06.813Z,1.10
2018-12-27T09:44:34.846Z,1.10
2018-12-27T09:47:01.630Z,1.10
2018-12-27T09:49:28.426Z,1.30
2018-12-27T09:52:01.886Z,1.30
2018-12-27T09:54:25.065Z,1.30
2018-12-27T09:56:52.038Z,1.30
2018-12-27T09:59:19.160Z,1.30
2018-12-27T10:01:46.256Z,1.20
2018-12-27T10:04:13.366Z,1.30
2018-12-27T10:06:40.987Z,1.30
2018-12-27T10:09:07.743Z,1.20
2018-12-27T10:11:34.778Z,1.30
2018-12-27T10:14:01.812Z,1.30
2018-12-27T10:16:29.020Z,1.20
2018-12-27T10:18:56.027Z,1.20
2018-12-27T10:21:23.027Z,1.20
2018-12-27T10:23:50.351Z,1.20
2018-12-27T10:26:17.425Z,1.30
2018-12-27T10:28:44.451Z,1.30
2018-12-27T10:31:11.738Z,1.30
2018-12-27T10:33:39.387Z,1.20
2018-12-27T10:36:06.478Z,1.20
2018-12-27T10:38:33.264Z,1.20
2018-12-27T10:41:00.347Z,1.20
2018-12-27T10:43:27.454Z,1.20
2018-12-27T10:45:54.890Z,1.20
2018-12-27T10:48:22.023Z,1.30
2018-12-27T10:50:49.123Z,1.20
2018-12-27T10:53:15.890Z,1.30
2018-12-27T10:55:43.010Z,1.40
2018-12-27T10:58:10.134Z,1.40
2018-12-27T11:00:37.688Z,1.30
2018-12-27T11:03:04.451Z,1.30
2018-12-27T11:05:31.746Z,1.20
2018-12-27T11:07:59.126Z,1.30
2018-12-27T11:10:26.137Z,1.30
2018-12-27T11:12:53.440Z,1.20
2018-12-27T11:15:20.678Z,1.30
2018-12-27T11:17:47.738Z,1.50
2018-12-27T11:20:14.962Z,1.60
2018-12-27T11:22:41.994Z,1.60
2018-12-27T11:25:08.881Z,1.50
2018-12-27T11:27:35.940Z,1.40
2018-12-27T11:30:03.027Z,1.60
2018-12-27T11:32:30.152Z,1.60
2018-12-27T11:34:57.164Z,1.60
2018-12-27T11:37:24.469Z,1.50
2018-12-27T11:39:51.864Z,1.50
2018-12-27T11:42:19.190Z,1.50
2018-12-27T11:44:46.586Z,1.50
2018-12-27T11:47:13.748Z,1.50
2018-12-27T11:49:41.194Z,1.40
2018-12-27T11:52:08.321Z,1.50
2018-12-27T11:54:35.598Z,1.40
2018-12-27T11:57:02.487Z,1.40
2018-12-27T11:59:29.499Z,1.40
2018-12-27T12:01:56.652Z,1.50
2018-12-27T12:04:23.902Z,1.60
2018-12-27T12:06:51.161Z,1.60
2018-12-27T12:09:18.528Z,1.60
2018-12-27T12:11:45.294Z,1.70
2018-12-27T12:14:12.361Z,1.70
2018-12-27T12:16:39.774Z,1.60
2018-12-27T12:19:06.589Z,1.60
2018-12-27T12:21:33.947Z,1.60
2018-12-27T12:24:01.096Z,1.60
2018-12-27T12:26:28.234Z,1.60
2018-12-27T12:28:55.290Z,1.60
2018-12-27T12:31:22.058Z,1.60
2018-12-27T12:33:49.286Z,1.60
2018-12-27T12:36:16.118Z,1.60
2018-12-27T12:38:43.953Z,1.60
2018-12-27T12:41:11.047Z,1.70
2018-12-27T12:43:38.616Z,1.60
2018-12-27T12:46:05.972Z,1.70
2018-12-27T12:48:32.740Z,1.80
2018-12-27T12:50:59.726Z,1.70
2018-12-27T12:53:27.124Z,1.60
2018-12-27T12:55:54.513Z,1.60
2018-12-27T12:58:21.420Z,1.60
2018-12-27T13:00:48.676Z,1.70
2018-12-27T13:03:16.056Z,1.60
2018-12-27T13:05:42.790Z,1.70
2018-12-27T13:08:09.663Z,1.70
2018-12-27T13:10:36.725Z,1.80
2018-12-27T13:13:03.611Z,1.70
2018-12-27T13:15:30.648Z,1.70
2018-12-27T13:17:57.884Z,1.80
2018-12-27T13:20:24.991Z,1.80
2018-12-27T13:22:52.907Z,1.90
2018-12-27T13:25:19.659Z,1.90
2018-12-27T13:27:47.006Z,1.80
2018-12-27T13:30:14.222Z,1.80
2018-12-27T13:32:41.083Z,1.80
2018-12-27T13:35:08.210Z,1.80
2018-12-27T13:37:34.968Z,1.80
2018-12-27T13:40:02.645Z,1.80
2018-12-27T13:42:29.979Z,1.80
2018-12-27T13:44:57.562Z,1.90
2018-12-27T13:47:24.582Z,1.80
2018-12-27T13:49:51.346Z,1.70
2018-12-27T13:52:18.398Z,1.70
2018-12-27T13:54:45.756Z,1.80
2018-12-27T13:57:12.518Z,1.90
2018-12-27T13:59:39.806Z,1.70
2018-12-27T14:02:06.811Z,1.70
2018-12-27T14:04:34.151Z,1.70
2018-12-27T14:07:00.894Z,1.70
2018-12-27T14:09:27.959Z,1.70
2018-12-27T14:11:55.300Z,1.70
2018-12-27T14:14:22.643Z,1.80
2018-12-27T14:16:49.698Z,1.70
2018-12-27T14:19:17.626Z,1.70
2018-12-27T14:21:44.779Z,1.70
2018-12-27T14:24:11.870Z,1.70
2018-12-27T14:26:39.237Z,1.70
2018-12-27T14:29:06.683Z,1.60
2018-12-27T14:31:33.798Z,1.60
2018-12-27T14:34:00.869Z,1.50
2018-12-27T14:36:28.088Z,1.60
2018-12-27T14:38:55.321Z,1.60
2018-12-27T14:41:22.119Z,1.50
2018-12-27T14:43:49.807Z,1.50
2018-12-27T14:46:17.068Z,1.50
2018-12-27T14:48:44.508Z,1.60
2018-12-27T14:51:11.691Z,1.60
2018-12-27T14:53:39.109Z,1.50
2018-12-27T14:56:06.209Z,1.50
2018-12-27T14:58:33.210Z,1.60
2018-12-27T15:01:00.510Z,1.60
2018-12-27T15:03:27.546Z,1.60
2018-12-27T15:05:54.810Z,1.70
2018-12-27T15:08:21.905Z,1.70
2018-12-27T15:10:49.376Z,1.80
2018-12-27T15:13:17.385Z,1.70
2018-12-27T15:15:44.311Z,1.70
2018-12-27T15:18:11.529Z,1.70
2018-12-27T15:20:38.995Z,1.70
2018-12-27T15:23:06.772Z,1.60
2018-12-27T15:25:34.792Z,1.60
2018-12-27T15:28:02.155Z,1.60
2018-12-27T15:30:29.466Z,1.60
2018-12-27T15:32:56.294Z,1.60
2018-12-27T15:35:23.534Z,1.60
2018-12-27T15:37:50.559Z,1.60
2018-12-27T15:40:18.543Z,1.50
2018-12-27T15:42:46.262Z,1.50
2018-12-27T15:45:13.342Z,1.50
2018-12-27T15:47:40.814Z,1.50
2018-12-27T15:50:08.303Z,1.50
2018-12-27T15:52:35.834Z,1.50
2018-12-27T15:55:02.906Z,1.40
2018-12-27T15:57:30.005Z,1.40
2018-12-27T15:59:56.778Z,1.50
2018-12-27T16:02:23.542Z,1.50
2018-12-27T16:04:50.980Z,1.60
2018-12-27T16:07:17.994Z,1.60
2018-12-27T16:09:45.130Z,1.60
2018-12-27T16:12:11.931Z,1.70
2018-12-27T16:14:39.882Z,1.60
2018-12-27T16:17:07.455Z,1.60
2018-12-27T16:19:35.293Z,1.60
2018-12-27T16:22:02.383Z,1.50
2018-12-27T16:24:29.587Z,1.50
2018-12-27T16:26:57.103Z,1.50
2018-12-27T16:29:23.934Z,1.40
2018-12-27T16:31:50.699Z,1.50
2018-12-27T16:34:18.034Z,1.50
2018-12-27T16:36:44.962Z,1.40
2018-12-27T16:39:12.218Z,1.40
2018-12-27T16:41:39.607Z,1.40
2018-12-27T16:44:06.572Z,1.50
2018-12-27T16:46:33.965Z,1.50
2018-12-27T16:49:01.422Z,1.50
2018-12-27T16:51:28.827Z,1.70
2018-12-27T16:53:55.592Z,1.70
2018-12-27T16:56:22.736Z,1.70
2018-12-27T16:58:50.707Z,1.70
2018-12-27T17:01:17.797Z,1.70
2018-12-27T17:03:44.785Z,1.70
2018-12-27T17:06:11.594Z,1.50
2018-12-27T17:08:38.983Z,1.60
2018-12-27T17:11:05.760Z,1.50
2018-12-27T17:13:32.714Z,1.60
2018-12-27T17:15:59.695Z,1.50
2018-12-27T17:18:27.092Z,1.40
2018-12-27T17:20:53.927Z,1.40
2018-12-27T17:23:21.263Z,1.40
2018-12-27T17:25:48.035Z,1.40
2018-12-27T17:28:15.838Z,1.40
2018-12-27T17:30:42.719Z,1.30
2018-12-27T17:33:09.516Z,1.30
2018-12-27T17:35:36.294Z,1.30
2018-12-27T17:38:03.159Z,1.30
2018-12-27T17:40:29.950Z,1.40
2018-12-27T17:42:56.985Z,1.40
2018-12-27T17:45:26.481Z,1.40
2018-12-27T17:47:53.790Z,1.40
2018-12-27T17:50:21.091Z,1.40
2018-12-27T17:52:48.402Z,1.30
2018-12-27T17:55:15.866Z,1.30
2018-12-27T17:57:43.462Z,1.30
2018-12-27T18:00:10.514Z,1.20
2018-12-27T18:02:38.331Z,1.20
2018-12-27T18:05:05.318Z,1.20
2018-12-27T18:07:32.498Z,1.20
2018-12-27T18:09:59.605Z,1.10
2018-12-27T18:12:26.937Z,1.10
2018-12-27T18:15:01.347Z,1.10
2018-12-27T18:17:28.758Z,1.10
2018-12-27T18:19:56.314Z,1.10
2018-12-27T18:22:23.598Z,1.10
2018-12-27T18:24:51.078Z,1.30
2018-12-27T18:27:18.514Z,1.20
2018-12-27T18:29:45.482Z,1.20
2018-12-27T18:32:12.404Z,1.20
2018-12-27T18:34:39.235Z,1.20
2018-12-27T18:37:06.003Z,1.20
2018-12-27T18:39:33.534Z,1.30
2018-12-27T18:42:01.695Z,1.30
2018-12-27T18:44:29.367Z,1.20
2018-12-27T18:46:57.081Z,1.40
2018-12-27T18:49:24.138Z,1.40
2018-12-27T18:51:51.731Z,1.20
2018-12-27T18:54:18.756Z,1.10
2018-12-27T18:56:45.985Z,1.00
2018-12-27T18:59:13.402Z,1.00
2018-12-27T19:01:40.706Z,1.00
2018-12-27T19:04:07.796Z,1.00
2018-12-27T19:06:34.671Z,1.00
2018-12-27T19:09:01.759Z,1.20
2018-12-27T19:12:06.106Z,1.10
2018-12-27T19:14:32.900Z,1.00
2018-12-27T19:17:00.302Z,1.00
2018-12-27T19:19:27.374Z,1.00
2018-12-27T19:22:19.454Z,1.00
2018-12-27T19:24:46.217Z,0.90
2018-12-27T19:27:13.314Z,0.90
2018-12-27T19:29:40.915Z,1.00
2018-12-27T19:32:07.796Z,1.10
2018-12-27T19:34:34.847Z,1.10
2018-12-27T19:37:02.282Z,1.20
2018-12-27T19:39:29.115Z,1.20
2018-12-27T19:41:55.970Z,1.10
2018-12-27T19:44:22.738Z,1.00
2018-12-27T19:46:49.802Z,1.00
2018-12-27T19:49:16.832Z,1.00
2018-12-27T19:51:43.958Z,1.00
2018-12-27T19:54:11.021Z,1.10
2018-12-27T19:56:38.778Z,1.20
2018-12-27T19:59:06.476Z,1.10
2018-12-27T20:01:33.230Z,1.10
2018-12-27T20:04:00.137Z,1.10
2018-12-27T20:06:27.004Z,1.10
2018-12-27T20:08:54.418Z,1.10
2018-12-27T20:11:21.506Z,1.00
2018-12-27T20:13:48.536Z,1.10
2018-12-27T20:16:15.887Z,1.10
2018-12-27T20:18:43.271Z,1.20
2018-12-27T20:21:10.439Z,1.20
2018-12-27T20:23:37.195Z,1.10
2018-12-27T20:26:04.013Z,1.20
2018-12-27T20:28:30.931Z,1.20
2018-12-27T20:30:57.818Z,1.20
2018-12-27T20:33:24.874Z,1.20
2018-12-27T20:35:52.082Z,1.20
2018-12-27T20:38:19.106Z,1.10
2018-12-27T20:40:46.310Z,1.10
2018-12-27T20:43:13.691Z,1.10
2018-12-27T20:45:41.080Z,1.10
2018-12-27T20:48:08.478Z,1.10
2018-12-27T20:50:35.277Z,1.20
2018-12-27T20:53:02.479Z,1.20
2018-12-27T20:55:29.581Z,1.20
2018-12-27T20:57:56.751Z,1.20
2018-12-27T21:00:24.032Z,1.30
2018-12-27T21:02:51.100Z,1.30
2018-12-27T21:05:18.534Z,1.20
2018-12-27T21:07:46.231Z,1.20
2018-12-27T21:10:13.497Z,1.20
2018-12-27T21:12:40.756Z,1.10
2018-12-27T21:15:07.930Z,1.00
2018-12-27T21:17:35.255Z,1.10
2018-12-27T21:20:02.465Z,1.10
2018-12-27T21:22:29.875Z,1.10
2018-12-27T21:24:58.121Z,1.10
2018-12-27T21:27:25.998Z,1.10
2018-12-27T21:29:53.496Z,1.00
2018-12-27T21:32:21.429Z,1.00
2018-12-27T21:34:48.276Z,1.00
2018-12-27T21:37:15.138Z,1.00
2018-12-27T21:39:42.839Z,0.90
2018-12-27T21:42:10.528Z,0.90
2018-12-27T21:44:37.830Z,0.90
2018-12-27T21:47:05.267Z,0.80
2018-12-27T21:49:32.358Z,0.80
2018-12-27T21:51:59.118Z,0.80
2018-12-27T21:54:26.443Z,0.80
2018-12-27T21:56:53.307Z,0.80
2018-12-27T21:59:20.794Z,0.80
2018-12-27T22:01:48.223Z,0.80
2018-12-27T22:04:14.995Z,0.80
2018-12-27T22:06:42.455Z,1.00
2018-12-27T22:09:09.929Z,0.90
2018-12-27T22:11:36.922Z,0.90
2018-12-27T22:14:03.804Z,0.90
2018-12-27T22:16:30.733Z,0.90
2018-12-27T22:18:58.101Z,1.10
2018-12-27T22:21:25.406Z,1.10
2018-12-27T22:23:52.269Z,1.10
2018-12-27T22:26:19.376Z,1.20
2018-12-27T22:28:46.160Z,1.20
2018-12-27T22:31:12.911Z,1.20
2018-12-27T22:33:39.674Z,1.10
2018-12-27T22:36:07.130Z,1.00
2018-12-27T22:38:35.800Z,1.00
2018-12-27T22:41:02.902Z,1.00
2018-12-27T22:43:30.027Z,0.90
2018-12-27T22:45:57.562Z,0.80
2018-12-27T22:48:24.354Z,0.80
2018-12-27T22:50:51.686Z,0.70
2018-12-27T22:53:19.038Z,0.80
2018-12-27T22:55:55.910Z,0.90
2018-12-27T22:58:23.366Z,1.00
2018-12-27T23:00:51.874Z,0.90
2018-12-27T23:03:19.663Z,0.90
2018-12-27T23:05:46.729Z,0.90
2018-12-27T23:08:14.415Z,0.90
2018-12-27T23:10:41.315Z,0.90
2018-12-27T23:13:08.369Z,1.00
2018-12-27T23:15:35.470Z,1.10
2018-12-27T23:18:02.818Z,1.00
2018-12-27T23:20:29.858Z,0.90
2018-12-27T23:22:56.614Z,0.80
2018-12-27T23:25:23.413Z,0.90
2018-12-27T23:27:50.534Z,0.80
2018-12-27T23:30:17.407Z,0.90
2018-12-27T23:32:44.847Z,0.90
2018-12-27T23:35:11.723Z,1.00
2018-12-27T23:37:39.130Z,1.10
2018-12-27T23:40:05.915Z,0.90
2018-12-27T23:42:33.033Z,0.90
2018-12-27T23:45:00.374Z,0.90
2018-12-27T23:47:27.634Z,0.80
2018-12-27T23:49:55.250Z,0.90
2018-12-27T23:52:22.578Z,0.90
2018-12-27T23:54:49.981Z,0.80
2018-12-27T23:57:16.881Z,0.80
2018-12-27T23:59:43.922Z,0.80
